Time;durP1;ratioP1;P1;durP2;ratioP2;P2;SDS_P1;SDS_P2;PMS_P1;PMS_P2;Temp;Humidity;BMP_temperature;BMP_pressure;BME280_temperature;BME280_humidity;BME280_pressure;Samples;Min_cycle;Max_cycle;Signal;HPM_P1;HPM_P2
2024/01/06 00:01:52;;;;;;;27.13;24.17;;;2.70;99.90;;;;;;5124979;27;20137;-82
2024/01/06 00:04:18;;;;;;;25.70;23.05;;;2.60;99.90;;;;;;5122453;27;20052;-81
2024/01/06 00:06:44;;;;;;;28.75;25.30;;;2.60;99.90;;;;;;5124059;27;20047;-82
2024/01/06 00:09:09;;;;;;;25.23;22.63;;;2.60;99.90;;;;;;5120815;27;20129;-82
2024/01/06 00:11:35;;;;;;;28.08;24.40;;;2.60;99.90;;;;;;5115639;27;20328;-82
2024/01/06 00:14:01;;;;;;;24.10;21.60;;;2.60;99.90;;;;;;5135793;27;20047;-82
2024/01/06 00:16:26;;;;;;;24.45;21.92;;;2.70;99.90;;;;;;5122031;27;20042;-81
2024/01/06 00:18:52;;;;;;;23.92;21.48;;;2.50;99.90;;;;;;5122018;27;20043;-81
2024/01/06 00:21:18;;;;;;;25.45;22.85;;;2.60;99.90;;;;;;5119980;27;20122;-80
2024/01/06 00:23:43;;;;;;;27.15;23.55;;;2.60;99.90;;;;;;5115651;27;20531;-81
2024/01/06 00:26:12;;;;;;;24.80;22.20;;;2.60;99.90;;;;;;5128942;27;20050;-80
2024/01/06 00:28:41;;;;;;;23.65;21.35;;;2.60;99.90;;;;;;5123557;27;20046;-79
2024/01/06 00:31:07;;;;;;;25.10;22.60;;;2.60;99.90;;;;;;5117256;27;20034;-79
2024/01/06 00:33:33;;;;;;;23.88;21.45;;;2.60;99.90;;;;;;5120065;27;20102;-80
2024/01/06 00:35:58;;;;;;;40.50;29.13;;;2.60;99.90;;;;;;5122298;27;20472;-80
2024/01/06 00:38:24;;;;;;;50.25;34.08;;;2.60;99.90;;;;;;5124392;27;20031;-80
2024/01/06 00:40:50;;;;;;;38.85;32.08;;;2.60;99.90;;;;;;5124627;27;20083;-80
2024/01/06 00:43:19;;;;;;;38.92;33.60;;;2.60;99.90;;;;;;5115612;27;20043;-80
2024/01/06 00:45:45;;;;;;;37.83;32.13;;;2.70;99.90;;;;;;5125647;27;20053;-82
2024/01/06 00:48:10;;;;;;;36.13;31.45;;;2.60;99.90;;;;;;5112297;27;20039;-82
2024/01/06 00:50:36;;;;;;;38.58;31.83;;;2.60;99.90;;;;;;5105931;27;20102;-82
2024/01/06 00:53:02;;;;;;;35.08;28.98;;;2.60;99.90;;;;;;5120513;27;20034;-82
2024/01/06 00:55:28;;;;;;;39.42;32.30;;;2.60;99.90;;;;;;5116558;27;20041;-82
2024/01/06 00:57:54;;;;;;;40.53;32.20;;;2.60;99.90;;;;;;5122439;27;20043;-82
2024/01/06 01:00:20;;;;;;;49.95;32.78;;;2.60;99.90;;;;;;5102645;27;20065;-82
2024/01/06 01:02:45;;;;;;;36.70;30.30;;;2.60;99.90;;;;;;5119916;27;20575;-81
2024/01/06 01:05:11;;;;;;;43.20;32.92;;;2.60;99.90;;;;;;5123412;27;20047;-82
2024/01/06 01:07:37;;;;;;;43.38;32.67;;;2.60;99.90;;;;;;5126351;27;20466;-82
2024/01/06 01:10:04;;;;;;;37.97;31.33;;;2.50;99.90;;;;;;5135008;27;20035;-81
2024/01/06 01:12:30;;;;;;;47.00;34.42;;;2.50;99.90;;;;;;5118598;27;20056;-81
2024/01/06 01:14:56;;;;;;;41.38;32.80;;;2.50;99.90;;;;;;5122307;27;20038;-81
2024/01/06 01:17:22;;;;;;;53.55;35.55;;;2.50;99.90;;;;;;5108217;27;20122;-81
2024/01/06 01:19:47;;;;;;;55.30;35.25;;;2.50;99.90;;;;;;5109908;27;20507;-83
2024/01/06 01:22:14;;;;;;;62.80;38.45;;;2.50;99.90;;;;;;5137036;27;20507;-83
2024/01/06 01:24:40;;;;;;;38.20;31.02;;;2.50;99.90;;;;;;5111203;27;20035;-81
2024/01/06 01:27:05;;;;;;;55.05;34.95;;;2.50;99.90;;;;;;5109942;27;20465;-82
2024/01/06 01:29:31;;;;;;;44.45;32.80;;;2.40;99.90;;;;;;5122852;27;20262;-83
2024/01/06 01:31:57;;;;;;;44.13;33.38;;;2.50;99.90;;;;;;5124410;27;20039;-83
2024/01/06 01:34:23;;;;;;;44.92;33.13;;;2.40;99.90;;;;;;5117570;27;20507;-82
2024/01/06 01:36:48;;;;;;;41.15;32.03;;;2.40;99.90;;;;;;5101224;27;20479;-82
2024/01/06 01:39:14;;;;;;;38.38;30.50;;;2.40;99.90;;;;;;5132613;27;20042;-82
2024/01/06 01:41:40;;;;;;;31.85;28.25;;;2.40;99.90;;;;;;5139514;27;20121;-82
2024/01/06 01:44:06;;;;;;;38.40;31.02;;;2.40;99.90;;;;;;5123578;27;20114;-82
2024/01/06 01:46:32;;;;;;;42.03;32.55;;;2.40;99.90;;;;;;5125679;27;20049;-82
2024/01/06 01:49:00;;;;;;;44.13;34.72;;;2.40;99.90;;;;;;5115412;27;20043;-82
2024/01/06 01:51:32;;;;;;;83.80;39.08;;;2.40;99.90;;;;;;5122383;27;20109;-82
2024/01/06 01:53:59;;;;;;;49.25;33.30;;;2.30;99.90;;;;;;5126396;27;20114;-82
2024/01/06 01:56:26;;;;;;;38.47;29.63;;;2.40;99.90;;;;;;5117663;27;20047;-82
2024/01/06 01:58:52;;;;;;;43.83;30.20;;;2.40;99.90;;;;;;5116875;27;20034;-82
2024/01/06 02:01:18;;;;;;;30.38;26.73;;;2.30;99.90;;;;;;5116252;27;20058;-83
2024/01/06 02:03:44;;;;;;;31.77;27.02;;;2.30;99.90;;;;;;5115154;27;20035;-82
2024/01/06 02:06:10;;;;;;;36.17;26.13;;;2.30;99.90;;;;;;5118914;27;20098;-81
2024/01/06 02:08:36;;;;;;;39.25;28.85;;;2.20;99.90;;;;;;5122550;27;20054;-82
2024/01/06 02:11:03;;;;;;;35.42;27.45;;;2.20;99.90;;;;;;5137260;27;20035;-82
2024/01/06 02:13:36;;;;;;;32.72;26.65;;;2.20;99.90;;;;;;5118345;27;20284;-82
2024/01/06 02:16:06;;;;;;;31.63;26.08;;;2.20;99.90;;;;;;5113214;27;20051;-80
2024/01/06 02:18:32;;;;;;;30.83;25.05;;;2.20;99.90;;;;;;5117489;27;20098;-80
2024/01/06 02:20:59;;;;;;;39.03;28.48;;;2.10;99.90;;;;;;5120633;27;20039;-80
2024/01/06 02:23:26;;;;;;;41.10;28.35;;;2.10;99.90;;;;;;5114229;27;20046;-80
2024/01/06 02:25:52;;;;;;;39.78;28.83;;;2.00;99.90;;;;;;5101840;27;20426;-80
2024/01/06 02:28:21;;;;;;;32.33;26.40;;;2.10;99.90;;;;;;5134902;27;20547;-80
2024/01/06 02:30:47;;;;;;;33.28;27.38;;;2.10;99.90;;;;;;5122098;27;20293;-80
2024/01/06 02:33:13;;;;;;;36.75;27.13;;;2.00;99.90;;;;;;5120169;27;20103;-80
2024/01/06 02:35:40;;;;;;;30.98;26.42;;;2.10;99.90;;;;;;5122944;27;20043;-79
2024/01/06 02:38:06;;;;;;;30.13;25.17;;;2.10;99.90;;;;;;5126242;27;20038;-79
2024/01/06 02:40:32;;;;;;;31.25;26.40;;;2.00;99.90;;;;;;5125511;27;20051;-79
2024/01/06 02:42:58;;;;;;;29.17;25.52;;;2.10;99.90;;;;;;5103353;27;20039;-79
2024/01/06 02:45:24;;;;;;;30.15;24.58;;;2.00;99.90;;;;;;5107619;27;20059;-80
2024/01/06 02:47:50;;;;;;;29.98;24.90;;;2.10;99.90;;;;;;5115603;27;20053;-80
2024/01/06 02:50:16;;;;;;;32.28;25.95;;;2.00;99.90;;;;;;5108448;27;20039;-80
2024/01/06 02:52:43;;;;;;;40.05;28.55;;;2.00;99.90;;;;;;5113278;27;20042;-80
2024/01/06 02:55:09;;;;;;;30.92;25.77;;;2.00;99.90;;;;;;5112400;27;20058;-80
2024/01/06 02:57:35;;;;;;;35.15;27.42;;;1.90;99.90;;;;;;5091749;27;20043;-80
2024/01/06 03:00:01;;;;;;;34.28;26.67;;;2.00;99.90;;;;;;5097012;27;20071;-80
2024/01/06 03:02:27;;;;;;;32.72;27.17;;;2.00;99.90;;;;;;5109254;27;20369;-79
2024/01/06 03:04:53;;;;;;;35.67;29.05;;;2.00;99.90;;;;;;5120657;27;20047;-80
2024/01/06 03:07:19;;;;;;;38.92;30.55;;;2.00;99.90;;;;;;5110016;27;20350;-80
2024/01/06 03:09:44;;;;;;;40.42;31.17;;;1.90;99.90;;;;;;5110665;27;20070;-81
2024/01/06 03:12:10;;;;;;;42.53;31.60;;;1.90;99.90;;;;;;5092355;27;20512;-81
2024/01/06 03:14:37;;;;;;;51.08;33.95;;;1.90;99.90;;;;;;5093174;27;20035;-81
2024/01/06 03:17:03;;;;;;;45.20;32.92;;;1.90;99.90;;;;;;5108229;27;20039;-80
2024/01/06 03:19:32;;;;;;;43.53;32.47;;;1.90;99.90;;;;;;5113679;27;20039;-80
2024/01/06 03:21:58;;;;;;;42.72;32.63;;;1.80;99.90;;;;;;5095306;27;20074;-80
2024/01/06 03:24:26;;;;;;;45.20;33.90;;;1.80;99.90;;;;;;5110169;27;20081;-80
2024/01/06 03:26:52;;;;;;;47.60;34.58;;;1.80;99.90;;;;;;5108917;27;20885;-80
2024/01/06 03:29:18;;;;;;;49.30;35.70;;;1.80;99.90;;;;;;5109184;27;20043;-79
2024/01/06 03:31:44;;;;;;;60.03;36.08;;;1.70;99.90;;;;;;5110749;27;20826;-79
2024/01/06 03:34:11;;;;;;;48.50;34.47;;;1.80;99.90;;;;;;5108723;27;20160;-79
2024/01/06 03:36:39;;;;;;;51.83;35.03;;;1.70;99.90;;;;;;5113702;27;20036;-79
2024/01/06 03:39:06;;;;;;;42.80;31.75;;;1.70;99.90;;;;;;5104867;27;20039;-80
2024/01/06 03:41:32;;;;;;;41.30;31.95;;;1.70;99.90;;;;;;5131630;27;20038;-79
2024/01/06 03:43:58;;;;;;;41.10;31.52;;;1.70;99.90;;;;;;5129369;27;20064;-80
2024/01/06 03:46:24;;;;;;;43.70;33.05;;;1.70;99.90;;;;;;5099278;27;20049;-80
2024/01/06 03:48:56;;;;;;;39.33;32.25;;;1.70;99.90;;;;;;5117605;27;20093;-79
2024/01/06 03:51:25;;;;;;;40.38;31.42;;;1.70;99.90;;;;;;5108207;27;20068;-80
2024/01/06 03:53:51;;;;;;;39.00;30.08;;;1.70;99.90;;;;;;5101956;27;20047;-80
2024/01/06 03:56:18;;;;;;;38.05;30.33;;;1.70;99.90;;;;;;5118026;27;20046;-80
2024/01/06 03:58:44;;;;;;;40.75;31.73;;;1.60;99.90;;;;;;5110142;27;20046;-80
2024/01/06 04:01:10;;;;;;;39.40;30.58;;;1.60;99.90;;;;;;5122646;27;20047;-81
2024/01/06 04:03:35;;;;;;;37.92;30.40;;;1.60;99.90;;;;;;5121899;27;20528;-80
2024/01/06 04:06:07;;;;;;;39.80;30.30;;;1.60;99.90;;;;;;5111579;27;20040;-80
2024/01/06 04:08:33;;;;;;;41.10;31.30;;;1.60;99.90;;;;;;5107403;27;20034;-80
2024/01/06 04:10:59;;;;;;;40.30;31.15;;;1.50;99.90;;;;;;5113962;27;20031;-79
2024/01/06 04:13:25;;;;;;;46.63;32.03;;;1.40;99.90;;;;;;5101092;27;20037;-80
2024/01/06 04:15:51;;;;;;;36.22;29.35;;;1.40;99.90;;;;;;5119877;27;20046;-79
2024/01/06 04:18:18;;;;;;;37.72;29.70;;;1.50;99.90;;;;;;5104418;27;20038;-80
2024/01/06 04:20:43;;;;;;;40.10;30.65;;;1.50;99.90;;;;;;5116193;27;20568;-80
2024/01/06 04:23:09;;;;;;;41.38;30.95;;;1.50;99.90;;;;;;5122198;27;20126;-79
2024/01/06 04:25:35;;;;;;;38.08;28.80;;;1.50;99.90;;;;;;5116442;27;20112;-80
2024/01/06 04:28:01;;;;;;;34.42;27.83;;;1.50;99.90;;;;;;5104335;27;20119;-79
2024/01/06 04:30:26;;;;;;;35.50;26.92;;;1.60;99.90;;;;;;5109873;27;20100;-80
2024/01/06 04:32:52;;;;;;;35.88;27.65;;;1.60;99.90;;;;;;5117306;27;20132;-79
2024/01/06 04:35:20;;;;;;;32.90;27.92;;;1.40;99.90;;;;;;5120854;27;20449;-79
2024/01/06 04:37:47;;;;;;;34.17;28.40;;;1.50;99.90;;;;;;5124031;27;20042;-78
2024/01/06 04:40:12;;;;;;;35.50;28.00;;;1.50;99.90;;;;;;5109008;27;20045;-78
2024/01/06 04:42:38;;;;;;;36.13;27.85;;;1.50;99.90;;;;;;5118697;27;20039;-78
2024/01/06 04:45:05;;;;;;;36.60;28.13;;;1.50;99.90;;;;;;5112791;27;20391;-79
2024/01/06 04:47:30;;;;;;;36.97;27.30;;;1.40;99.90;;;;;;5114040;27;20062;-79
2024/01/06 04:49:56;;;;;;;36.60;27.33;;;1.50;99.90;;;;;;5115050;27;20505;-78
2024/01/06 04:52:22;;;;;;;45.30;29.08;;;1.40;99.90;;;;;;5107321;27;20039;-79
2024/01/06 04:54:48;;;;;;;38.08;28.80;;;1.40;99.90;;;;;;5136622;27;20500;-79
2024/01/06 04:57:15;;;;;;;33.53;26.48;;;1.40;99.90;;;;;;5099361;27;20397;-79
2024/01/06 04:59:41;;;;;;;39.08;28.60;;;1.50;99.90;;;;;;5113387;27;20496;-79
2024/01/06 05:02:07;;;;;;;39.28;28.30;;;1.50;99.90;;;;;;5106986;27;20413;-79
2024/01/06 05:04:33;;;;;;;39.95;28.45;;;1.40;99.90;;;;;;5106316;27;20089;-79
2024/01/06 05:06:59;;;;;;;38.38;27.98;;;1.40;99.90;;;;;;5106917;27;20158;-80
2024/01/06 05:09:28;;;;;;;38.53;28.23;;;1.50;99.90;;;;;;5103446;27;20043;-79
2024/01/06 05:11:54;;;;;;;42.42;29.17;;;1.40;99.90;;;;;;5099118;27;20982;-79
2024/01/06 05:14:20;;;;;;;40.75;27.63;;;1.40;99.90;;;;;;5104865;27;20067;-79
2024/01/06 05:16:45;;;;;;;38.33;28.40;;;1.40;99.90;;;;;;5095391;27;20649;-80
2024/01/06 05:19:11;;;;;;;55.25;31.85;;;1.50;99.90;;;;;;5118655;27;20051;-79
2024/01/06 05:21:37;;;;;;;45.83;30.55;;;1.50;99.90;;;;;;5113883;27;20145;-79
2024/01/06 05:24:04;;;;;;;45.95;29.83;;;1.40;99.90;;;;;;5114926;27;20178;-80
2024/01/06 05:26:30;;;;;;;37.35;27.50;;;1.50;99.90;;;;;;5115530;27;20103;-79
2024/01/06 05:28:56;;;;;;;38.55;27.50;;;1.50;99.90;;;;;;5128390;27;20144;-79
2024/01/06 05:31:22;;;;;;;35.53;27.02;;;1.50;99.90;;;;;;5113751;27;20032;-79
2024/01/06 05:33:48;;;;;;;35.30;27.85;;;1.50;99.90;;;;;;5112230;27;20038;-80
2024/01/06 05:36:18;;;;;;;37.95;27.63;;;1.40;99.90;;;;;;5113411;27;20322;-78
2024/01/06 05:38:44;;;;;;;38.00;27.58;;;1.50;99.90;;;;;;5095360;27;20469;-78
2024/01/06 05:41:09;;;;;;;35.88;27.70;;;1.40;99.90;;;;;;5098379;27;20058;-79
2024/01/06 05:43:35;;;;;;;33.22;26.08;;;1.40;99.90;;;;;;5118801;27;20043;-79
2024/01/06 05:46:01;;;;;;;31.35;26.73;;;1.40;99.90;;;;;;5115334;27;20059;-79
2024/01/06 05:48:27;;;;;;;30.98;26.08;;;1.40;99.90;;;;;;5119728;27;20043;-79
2024/01/06 05:50:52;;;;;;;31.83;25.45;;;1.40;99.90;;;;;;5118765;27;21400;-79
2024/01/06 05:53:18;;;;;;;39.03;28.90;;;1.40;99.90;;;;;;5128105;27;20046;-79
2024/01/06 05:55:44;;;;;;;31.02;25.80;;;1.40;99.90;;;;;;5120380;27;20043;-79
2024/01/06 05:58:10;;;;;;;35.90;28.70;;;1.40;99.90;;;;;;5121964;27;20053;-79
2024/01/06 06:00:36;;;;;;;31.52;25.90;;;1.40;99.90;;;;;;5118765;27;20433;-79
2024/01/06 06:03:01;;;;;;;28.40;25.25;;;1.40;99.90;;;;;;5119393;27;20389;-79
2024/01/06 06:05:27;;;;;;;32.85;26.15;;;1.40;99.90;;;;;;5118491;27;20146;-78
2024/01/06 06:07:54;;;;;;;29.08;25.65;;;1.40;99.90;;;;;;5122317;27;20039;-78
2024/01/06 06:10:20;;;;;;;32.78;26.33;;;1.40;99.90;;;;;;5116883;27;20062;-79
2024/01/06 06:12:46;;;;;;;32.63;28.25;;;1.40;99.90;;;;;;5117990;27;20054;-78
2024/01/06 06:15:12;;;;;;;33.58;27.15;;;1.40;99.90;;;;;;5123345;27;20412;-79
2024/01/06 06:17:39;;;;;;;32.35;25.80;;;1.30;99.90;;;;;;5131570;27;20039;-78
2024/01/06 06:20:06;;;;;;;33.33;26.30;;;1.30;99.90;;;;;;5126553;27;20045;-79
2024/01/06 06:22:32;;;;;;;28.77;25.55;;;1.40;99.90;;;;;;5112500;27;20059;-78
2024/01/06 06:25:01;;;;;;;32.65;25.70;;;1.30;99.90;;;;;;5100703;27;20134;-78
2024/01/06 06:27:27;;;;;;;34.85;26.90;;;1.30;99.90;;;;;;5122924;27;20098;-78
2024/01/06 06:29:54;;;;;;;31.67;26.70;;;1.30;99.90;;;;;;5124323;27;20031;-78
2024/01/06 06:32:20;;;;;;;29.25;25.80;;;1.30;99.90;;;;;;5116226;27;20415;-79
2024/01/06 06:34:45;;;;;;;30.75;26.90;;;1.30;99.90;;;;;;5129268;27;20840;-80
2024/01/06 06:37:11;;;;;;;31.55;25.92;;;1.40;99.90;;;;;;5113604;27;20434;-77
2024/01/06 06:39:37;;;;;;;32.42;26.80;;;1.40;99.90;;;;;;5113055;27;20057;-79
2024/01/06 06:42:03;;;;;;;30.50;26.05;;;1.30;99.90;;;;;;5120076;27;20043;-79
2024/01/06 06:44:29;;;;;;;27.92;24.95;;;1.30;99.90;;;;;;5114945;27;20077;-78
2024/01/06 06:46:56;;;;;;;30.63;25.83;;;1.40;99.90;;;;;;5098887;27;20691;-80
2024/01/06 06:49:22;;;;;;;34.28;27.13;;;1.40;99.90;;;;;;5119723;27;20499;-80
2024/01/06 06:51:48;;;;;;;28.42;25.48;;;1.30;99.90;;;;;;5103333;27;20065;-79
2024/01/06 06:54:15;;;;;;;31.63;27.15;;;1.40;99.90;;;;;;5112522;27;20050;-78
2024/01/06 06:56:42;;;;;;;30.90;26.88;;;1.40;99.90;;;;;;5117479;27;20043;-77
2024/01/06 06:59:08;;;;;;;29.25;25.95;;;1.40;99.90;;;;;;5100067;27;20602;-78
2024/01/06 07:01:34;;;;;;;27.05;24.25;;;1.40;99.90;;;;;;5122440;27;20050;-77
2024/01/06 07:03:59;;;;;;;28.05;23.52;;;1.40;99.90;;;;;;5102392;27;20081;-77
2024/01/06 07:06:26;;;;;;;30.55;27.25;;;1.40;99.90;;;;;;5113692;27;20062;-78
2024/01/06 07:08:51;;;;;;;24.92;22.27;;;1.40;99.90;;;;;;5132622;27;20047;-78
2024/01/06 07:11:18;;;;;;;26.30;23.58;;;1.40;99.90;;;;;;5096935;27;20390;-77
2024/01/06 07:13:47;;;;;;;25.48;22.83;;;1.40;99.90;;;;;;5116721;27;20385;-77
2024/01/06 07:16:13;;;;;;;24.52;22.02;;;1.40;99.90;;;;;;5100884;27;20099;-79
2024/01/06 07:18:39;;;;;;;24.45;22.00;;;1.40;99.90;;;;;;5115620;27;20046;-77
2024/01/06 07:21:08;;;;;;;27.13;24.23;;;1.40;99.90;;;;;;5113360;27;20042;-79
2024/01/06 07:23:34;;;;;;;24.38;21.85;;;1.40;99.90;;;;;;5128173;27;20505;-77
2024/01/06 07:26:00;;;;;;;25.92;23.23;;;1.40;99.90;;;;;;5117721;27;20047;-77
2024/01/06 07:28:27;;;;;;;27.23;24.40;;;1.30;99.90;;;;;;5099588;27;20106;-77
2024/01/06 07:30:53;;;;;;;23.83;21.50;;;1.40;99.90;;;;;;5097150;27;20031;-77
2024/01/06 07:33:18;;;;;;;23.67;21.38;;;1.50;99.90;;;;;;5117742;27;20104;-77
2024/01/06 07:35:45;;;;;;;24.90;22.35;;;1.50;99.90;;;;;;5113038;27;20114;-77
2024/01/06 07:38:11;;;;;;;24.02;21.60;;;1.50;99.90;;;;;;5095330;27;20069;-77
2024/01/06 07:40:37;;;;;;;24.05;21.65;;;1.40;99.90;;;;;;5109841;27;20039;-77
2024/01/06 07:43:04;;;;;;;24.10;21.67;;;1.40;99.90;;;;;;5115237;27;20039;-77
2024/01/06 07:45:31;;;;;;;24.60;22.10;;;1.50;99.90;;;;;;5100806;27;20042;-77
2024/01/06 07:48:00;;;;;;;23.27;20.93;;;1.50;99.90;;;;;;5096713;27;20035;-77
2024/01/06 07:50:27;;;;;;;24.17;21.63;;;1.50;99.90;;;;;;5123088;27;20046;-77
2024/01/06 07:52:54;;;;;;;23.80;21.42;;;1.50;99.90;;;;;;5114544;27;20130;-77
2024/01/06 07:55:20;;;;;;;24.33;21.83;;;1.50;99.90;;;;;;5115359;27;20055;-77
2024/01/06 07:57:46;;;;;;;23.85;21.35;;;1.50;99.90;;;;;;5117824;27;20496;-77
2024/01/06 08:00:15;;;;;;;25.40;22.50;;;1.60;99.90;;;;;;5131630;27;20046;-77
2024/01/06 08:02:42;;;;;;;25.02;22.63;;;1.50;99.90;;;;;;5116930;27;20092;-77
2024/01/06 08:05:08;;;;;;;24.90;22.40;;;1.50;99.90;;;;;;5111720;27;20039;-77
2024/01/06 08:07:34;;;;;;;25.08;22.45;;;1.50;99.90;;;;;;5113568;27;20523;-77
2024/01/06 08:10:00;;;;;;;27.67;24.67;;;1.40;99.90;;;;;;5110010;27;20038;-77
2024/01/06 08:12:26;;;;;;;24.93;22.27;;;1.40;99.90;;;;;;5097308;27;20518;-76
2024/01/06 08:14:52;;;;;;;23.90;21.50;;;1.50;99.90;;;;;;5105210;27;20087;-76
2024/01/06 08:17:18;;;;;;;27.40;24.60;;;1.50;99.90;;;;;;5125216;27;20042;-76
2024/01/06 08:19:46;;;;;;;25.55;22.95;;;1.50;99.90;;;;;;5131630;27;20042;-77
2024/01/06 08:22:12;;;;;;;26.20;23.40;;;1.50;99.90;;;;;;5114590;27;20561;-77
2024/01/06 08:24:38;;;;;;;26.33;23.63;;;1.50;99.90;;;;;;5099224;27;20043;-77
2024/01/06 08:27:04;;;;;;;24.05;21.63;;;1.50;99.90;;;;;;5133930;27;20679;-77
2024/01/06 08:29:30;;;;;;;26.10;23.40;;;1.50;99.90;;;;;;5114223;27;20112;-76
2024/01/06 08:31:56;;;;;;;24.92;22.50;;;1.50;99.90;;;;;;5093559;27;20082;-78
2024/01/06 08:34:22;;;;;;;24.63;22.23;;;1.50;99.90;;;;;;5124412;27;20081;-77
2024/01/06 08:36:48;;;;;;;25.25;22.65;;;1.60;99.90;;;;;;5119603;27;20043;-77
2024/01/06 08:39:14;;;;;;;24.05;21.55;;;1.60;99.90;;;;;;5116637;27;20129;-77
2024/01/06 08:41:40;;;;;;;24.20;21.85;;;1.60;99.90;;;;;;5095614;27;20730;-77
2024/01/06 08:44:06;;;;;;;23.70;21.35;;;1.60;99.90;;;;;;5112826;27;20042;-77
2024/01/06 08:46:31;;;;;;;22.50;20.38;;;1.60;99.90;;;;;;5118160;27;20047;-77
2024/01/06 08:48:57;;;;;;;24.33;22.02;;;1.70;99.90;;;;;;5107641;27;20937;-77
2024/01/06 08:51:24;;;;;;;23.48;21.17;;;1.60;99.90;;;;;;5132195;27;20050;-76
2024/01/06 08:53:49;;;;;;;23.45;21.25;;;1.60;99.90;;;;;;5126034;27;20493;-76
2024/01/06 08:56:17;;;;;;;23.02;20.83;;;1.60;99.90;;;;;;5117308;27;20050;-76
2024/01/06 08:58:43;;;;;;;22.75;20.45;;;1.60;99.90;;;;;;5093941;27;20049;-79
2024/01/06 09:01:09;;;;;;;22.80;20.50;;;1.60;99.90;;;;;;5118226;27;20062;-79
2024/01/06 09:03:35;;;;;;;25.13;22.73;;;1.70;99.90;;;;;;5127703;27;20054;-79
2024/01/06 09:06:01;;;;;;;24.25;21.85;;;1.70;99.90;;;;;;5113930;27;20433;-79
2024/01/06 09:08:26;;;;;;;24.10;21.75;;;1.70;99.90;;;;;;5108754;27;20539;-79
2024/01/06 09:10:56;;;;;;;24.42;22.02;;;1.70;99.90;;;;;;5127003;27;20512;-76
2024/01/06 09:13:23;;;;;;;25.92;23.35;;;1.70;99.90;;;;;;5126830;27;20046;-77
2024/01/06 09:15:52;;;;;;;25.02;22.55;;;1.70;99.90;;;;;;5113714;27;20055;-76
2024/01/06 09:18:19;;;;;;;23.92;21.52;;;1.70;99.90;;;;;;5117458;27;20453;-78
2024/01/06 09:20:47;;;;;;;23.30;21.02;;;1.80;99.90;;;;;;5111794;27;20039;-77
2024/01/06 09:23:13;;;;;;;23.85;21.65;;;1.80;99.90;;;;;;5113714;27;20046;-77
2024/01/06 09:25:39;;;;;;;24.95;22.75;;;1.70;99.90;;;;;;5101516;27;20047;-76
2024/01/06 09:28:05;;;;;;;25.50;23.00;;;1.80;99.90;;;;;;5108480;27;20066;-76
2024/01/06 09:30:31;;;;;;;23.80;21.50;;;1.70;99.90;;;;;;5113566;27;20055;-76
2024/01/06 09:32:57;;;;;;;25.05;22.73;;;1.80;99.90;;;;;;5119707;27;20109;-76
2024/01/06 09:35:23;;;;;;;23.58;21.38;;;1.80;99.90;;;;;;5118792;27;20043;-76
2024/01/06 09:37:49;;;;;;;23.35;21.15;;;1.80;99.90;;;;;;5121912;27;20046;-76
2024/01/06 09:40:23;;;;;;;22.92;20.63;;;1.80;99.90;;;;;;5126321;27;20480;-76
2024/01/06 09:42:55;;;;;;;23.30;21.10;;;1.80;99.90;;;;;;5126325;27;20046;-77
2024/01/06 09:45:21;;;;;;;24.05;20.20;;;1.80;99.90;;;;;;5094953;27;20635;-76
2024/01/06 09:47:51;;;;;;;23.63;21.33;;;1.80;99.90;;;;;;5128532;27;20497;-76
2024/01/06 09:50:21;;;;;;;22.00;20.00;;;1.80;99.90;;;;;;5114111;27;20102;-76
2024/01/06 09:52:55;;;;;;;21.75;19.80;;;1.80;99.90;;;;;;5145788;27;20034;-76
2024/01/06 09:55:27;;;;;;;21.25;19.25;;;1.80;99.90;;;;;;5136339;27;20154;-76
2024/01/06 09:57:54;;;;;;;21.13;19.03;;;1.80;99.90;;;;;;5125560;27;20058;-76
2024/01/06 10:00:20;;;;;;;21.05;18.95;;;1.90;99.90;;;;;;5128150;27;20574;-76
2024/01/06 10:02:51;;;;;;;22.70;20.50;;;1.80;99.90;;;;;;5131781;27;20074;-76
2024/01/06 10:05:17;;;;;;;21.65;19.55;;;1.70;99.90;;;;;;5122158;27;20799;-77
2024/01/06 10:07:47;;;;;;;22.97;20.77;;;1.80;99.90;;;;;;5108939;27;20069;-76
2024/01/06 10:10:13;;;;;;;22.23;20.02;;;1.70;99.90;;;;;;5127543;27;20034;-75
2024/01/06 10:12:42;;;;;;;22.10;19.85;;;1.70;99.90;;;;;;5118758;27;20096;-76
2024/01/06 10:15:10;;;;;;;22.23;20.13;;;1.70;99.90;;;;;;5120957;27;20066;-76
2024/01/06 10:17:40;;;;;;;22.35;20.10;;;1.70;99.90;;;;;;5113396;27;20043;-76
2024/01/06 10:20:17;;;;;;;23.38;21.08;;;1.70;99.90;;;;;;5139164;27;20031;-78
2024/01/06 10:22:44;;;;;;;23.70;21.50;;;1.70;99.90;;;;;;5116761;27;20043;-76
2024/01/06 10:25:11;;;;;;;23.45;21.13;;;1.70;99.90;;;;;;5117022;27;20110;-76
2024/01/06 10:27:38;;;;;;;23.67;21.33;;;1.70;99.90;;;;;;5128196;27;20059;-76
2024/01/06 10:30:08;;;;;;;23.05;20.83;;;1.70;99.90;;;;;;5099899;27;20042;-76
2024/01/06 10:32:36;;;;;;;23.20;20.95;;;1.70;99.90;;;;;;5115575;27;20130;-77
2024/01/06 10:35:03;;;;;;;23.88;21.58;;;1.70;99.90;;;;;;5097280;27;20073;-76
2024/01/06 10:37:30;;;;;;;23.33;21.02;;;1.80;99.90;;;;;;5118402;27;20159;-76
2024/01/06 10:40:13;;;;;;;23.67;21.38;;;1.80;99.90;;;;;;5133819;27;20050;-76
2024/01/06 10:42:40;;;;;;;23.75;21.35;;;1.80;99.90;;;;;;5116467;27;20125;-78
2024/01/06 10:45:10;;;;;;;24.40;22.03;;;1.80;99.90;;;;;;5117962;27;20409;-76
2024/01/06 10:47:38;;;;;;;22.60;20.40;;;1.80;99.90;;;;;;5117714;27;20448;-77
2024/01/06 10:50:04;;;;;;;24.40;22.05;;;1.80;99.90;;;;;;5122566;27;20035;-76
2024/01/06 10:52:31;;;;;;;23.58;21.20;;;1.80;99.90;;;;;;5109621;27;20117;-78
2024/01/06 10:54:57;;;;;;;23.42;21.13;;;1.70;99.90;;;;;;5116091;27;20119;-78
2024/01/06 10:57:24;;;;;;;24.70;22.27;;;1.80;99.90;;;;;;5126818;27;20047;-78
2024/01/06 10:59:51;;;;;;;24.75;22.25;;;1.70;99.90;;;;;;5114233;27;20099;-79
2024/01/06 11:02:18;;;;;;;24.20;21.83;;;1.80;99.90;;;;;;5118286;27;20500;-79
2024/01/06 11:04:45;;;;;;;24.13;21.77;;;1.80;99.90;;;;;;5114497;27;20374;-79
2024/01/06 11:07:13;;;;;;;23.65;21.42;;;1.90;99.90;;;;;;5122447;27;20107;-76
2024/01/06 11:09:44;;;;;;;23.83;21.52;;;1.80;99.90;;;;;;5125368;27;20519;-76
2024/01/06 11:12:10;;;;;;;21.80;19.60;;;1.80;99.90;;;;;;5129815;27;20541;-76
2024/01/06 11:14:39;;;;;;;20.90;18.88;;;1.80;99.90;;;;;;5117874;27;20055;-76
2024/01/06 11:17:05;;;;;;;20.60;18.57;;;1.80;99.90;;;;;;5117211;27;20041;-76
2024/01/06 11:19:34;;;;;;;20.10;18.10;;;1.80;99.90;;;;;;5100577;27;20133;-78
2024/01/06 11:22:31;;;;;;;21.15;19.10;;;1.80;99.90;;;;;;5107964;27;20397;-78
2024/01/06 11:25:05;;;;;;;21.23;19.13;;;1.70;99.90;;;;;;5115551;27;20042;-78
2024/01/06 11:27:31;;;;;;;21.67;19.52;;;1.80;99.90;;;;;;5125317;27;20049;-78
2024/01/06 11:30:00;;;;;;;22.33;20.00;;;1.70;99.90;;;;;;5106548;27;20401;-78
2024/01/06 11:32:38;;;;;;;22.92;20.63;;;1.70;99.90;;;;;;5113533;27;20068;-78
2024/01/06 11:35:09;;;;;;;22.92;20.63;;;1.80;99.90;;;;;;5114160;27;20422;-76
2024/01/06 11:37:39;;;;;;;21.42;19.23;;;1.70;99.90;;;;;;5109148;27;20374;-76
2024/01/06 11:40:32;;;;;;;21.88;19.67;;;1.70;99.90;;;;;;5109360;27;20125;-77
2024/01/06 11:43:05;;;;;;;22.25;19.95;;;1.70;99.90;;;;;;5111832;27;20393;-77
2024/01/06 11:45:32;;;;;;;21.77;19.58;;;1.80;99.90;;;;;;5108580;27;20054;-77
2024/01/06 11:48:05;;;;;;;18.10;16.40;;;1.80;99.90;;;;;;5111488;27;20063;-77
2024/01/06 11:50:33;;;;;;;20.37;18.37;;;1.70;99.90;;;;;;5135506;27;20062;-77
2024/01/06 11:52:59;;;;;;;20.83;18.73;;;1.70;99.90;;;;;;5119272;27;20042;-77
2024/01/06 11:55:29;;;;;;;19.02;17.23;;;1.70;99.90;;;;;;5128850;27;20035;-77
2024/01/06 11:58:01;;;;;;;18.83;17.03;;;1.70;99.90;;;;;;5107053;27;20076;-77
2024/01/06 12:00:30;;;;;;;19.05;17.23;;;1.70;99.90;;;;;;5125192;27;20379;-77
2024/01/06 12:03:01;;;;;;;22.35;20.05;;;1.70;99.90;;;;;;5122511;27;20236;-77
2024/01/06 12:05:27;;;;;;;20.13;18.23;;;1.70;99.90;;;;;;5110003;27;20055;-77
2024/01/06 12:07:57;;;;;;;19.00;17.20;;;1.70;99.90;;;;;;5123253;27;20035;-77
2024/01/06 12:10:25;;;;;;;18.70;16.90;;;1.70;99.90;;;;;;5118643;27;20039;-77
2024/01/06 12:13:05;;;;;;;19.60;17.70;;;1.80;99.90;;;;;;5117374;27;20073;-77
2024/01/06 12:15:32;;;;;;;20.33;18.42;;;1.70;99.90;;;;;;5112428;27;20154;-77
2024/01/06 12:17:58;;;;;;;20.23;18.33;;;1.70;99.90;;;;;;5098220;27;20037;-76
2024/01/06 12:20:28;;;;;;;20.48;18.48;;;1.70;99.90;;;;;;5116427;27;20405;-77
2024/01/06 12:22:55;;;;;;;23.48;21.10;;;1.70;99.90;;;;;;5119534;27;20041;-78
2024/01/06 12:25:22;;;;;;;23.05;20.75;;;1.70;99.90;;;;;;5115545;27;20095;-78
2024/01/06 12:27:49;;;;;;;22.92;20.63;;;1.70;99.90;;;;;;5109337;27;20516;-77
2024/01/06 12:30:19;;;;;;;22.45;20.35;;;1.70;99.90;;;;;;5117918;27;20050;-78
2024/01/06 12:32:46;;;;;;;22.17;20.02;;;1.70;99.90;;;;;;5114941;27;20500;-78
2024/01/06 12:35:14;;;;;;;22.63;20.42;;;1.70;99.90;;;;;;5113068;27;20038;-78